Time;durP1;ratioP1;P1;durP2;ratioP2;P2;SDS_P1;SDS_P2;PMS_P1;PMS_P2;Temp;Humidity;BMP_temperature;BMP_pressure;BME280_temperature;BME280_humidity;BME280_pressure;Samples;Min_cycle;Max_cycle;Signal;HPM_P1;HPM_P2
2023/12/19 00:00:13;;;;;;;4.10;3.38;;;;;;;;;;4984163;28;20435;-69
2023/12/19 00:02:39;;;;;;;5.22;3.45;;;;;;;;;;4995768;28;20021;-69
2023/12/19 00:05:13;;;;;;;4.40;3.30;;;;;;;;;;4966721;28;20031;-69
2023/12/19 00:07:40;;;;;;;6.53;4.38;;;;;;;;;;4981023;28;20379;-70
2023/12/19 00:10:07;;;;;;;5.38;4.20;;;;;;;;;;4979870;28;20506;-69
2023/12/19 00:12:33;;;;;;;5.10;4.22;;;;;;;;;;5032790;28;20019;-70
2023/12/19 00:15:00;;;;;;;3.72;3.08;;;;;;;;;;4985566;28;20030;-70
2023/12/19 00:17:26;;;;;;;4.07;3.50;;;;;;;;;;5021874;28;20155;-68
2023/12/19 00:19:52;;;;;;;4.25;3.33;;;;;;;;;;4991731;28;20046;-68
2023/12/19 00:22:18;;;;;;;3.97;3.30;;;;;;;;;;5017310;28;20509;-68
2023/12/19 00:24:44;;;;;;;3.28;2.58;;;;;;;;;;4991890;28;20062;-70
2023/12/19 00:27:10;;;;;;;5.05;2.85;;;;;;;;;;5019889;28;20027;-68
2023/12/19 00:29:37;;;;;;;4.95;3.45;;;;;;;;;;4949401;28;20340;-68
2023/12/19 00:32:03;;;;;;;7.10;3.33;;;;;;;;;;4979269;28;20430;-68
2023/12/19 00:34:29;;;;;;;5.50;3.70;;;;;;;;;;4964825;28;20023;-68
2023/12/19 00:36:55;;;;;;;6.97;3.40;;;;;;;;;;4957868;28;20023;-68
2023/12/19 00:39:22;;;;;;;4.70;3.05;;;;;;;;;;4972062;28;21738;-68
2023/12/19 00:41:48;;;;;;;4.85;3.28;;;;;;;;;;5002815;28;20038;-68
2023/12/19 00:44:14;;;;;;;5.35;4.00;;;;;;;;;;4978870;28;20042;-69
2023/12/19 00:46:43;;;;;;;6.07;3.70;;;;;;;;;;5012966;28;20024;-69
2023/12/19 00:49:10;;;;;;;8.35;4.60;;;;;;;;;;5016953;28;20099;-69
2023/12/19 00:51:36;;;;;;;9.45;5.07;;;;;;;;;;4974131;28;20390;-68
2023/12/19 00:54:02;;;;;;;14.82;7.30;;;;;;;;;;5032120;28;20031;-68
2023/12/19 00:56:29;;;;;;;10.73;5.25;;;;;;;;;;4984835;28;20172;-70
2023/12/19 00:58:55;;;;;;;7.70;3.80;;;;;;;;;;5048437;28;20030;-68
2023/12/19 01:01:24;;;;;;;4.00;3.40;;;;;;;;;;4955496;28;20053;-68
2023/12/19 01:03:51;;;;;;;5.22;3.40;;;;;;;;;;4967200;28;20031;-70
2023/12/19 01:06:17;;;;;;;4.15;2.75;;;;;;;;;;4960603;28;20249;-70
2023/12/19 01:08:43;;;;;;;5.43;3.30;;;;;;;;;;4979916;28;20474;-71
2023/12/19 01:11:10;;;;;;;3.97;3.20;;;;;;;;;;4989635;28;20030;-68
2023/12/19 01:13:37;;;;;;;3.45;2.80;;;;;;;;;;4945379;28;20631;-69
2023/12/19 01:16:03;;;;;;;6.35;2.88;;;;;;;;;;4956728;28;20088;-70
2023/12/19 01:18:29;;;;;;;4.28;3.08;;;;;;;;;;5041802;28;20077;-69
2023/12/19 01:20:55;;;;;;;4.22;2.55;;;;;;;;;;4981087;28;20055;-70
2023/12/19 01:23:23;;;;;;;3.60;2.72;;;;;;;;;;5045456;28;20139;-70
2023/12/19 01:25:49;;;;;;;3.22;2.67;;;;;;;;;;4987297;28;20356;-70
2023/12/19 01:28:15;;;;;;;4.13;2.92;;;;;;;;;;5043533;28;20024;-70
2023/12/19 01:30:41;;;;;;;3.83;3.33;;;;;;;;;;5012658;28;20062;-70
2023/12/19 01:33:09;;;;;;;5.57;2.60;;;;;;;;;;4972838;28;20598;-70
2023/12/19 01:35:36;;;;;;;4.35;3.17;;;;;;;;;;4999296;28;20709;-69
2023/12/19 01:38:02;;;;;;;4.80;2.85;;;;;;;;;;4993217;28;20092;-70
2023/12/19 01:40:31;;;;;;;4.50;3.50;;;;;;;;;;4982280;28;20723;-70
2023/12/19 01:42:57;;;;;;;7.97;3.90;;;;;;;;;;5026593;28;20033;-69
2023/12/19 01:45:25;;;;;;;3.60;3.00;;;;;;;;;;4955943;28;20399;-67
2023/12/19 01:47:52;;;;;;;4.32;3.20;;;;;;;;;;4985455;28;20065;-68
2023/12/19 01:50:18;;;;;;;4.13;2.92;;;;;;;;;;4983654;28;20027;-69
2023/12/19 01:52:46;;;;;;;3.75;3.28;;;;;;;;;;4986833;28;20035;-69
2023/12/19 01:55:13;;;;;;;5.57;3.00;;;;;;;;;;4963390;28;20038;-69
2023/12/19 01:57:39;;;;;;;3.45;2.55;;;;;;;;;;4990295;28;20069;-69
2023/12/19 02:00:06;;;;;;;2.95;2.65;;;;;;;;;;4950145;28;20038;-69
2023/12/19 02:02:32;;;;;;;4.18;2.55;;;;;;;;;;5034665;28;20072;-69
2023/12/19 02:04:59;;;;;;;3.17;2.55;;;;;;;;;;4967834;28;20035;-68
2023/12/19 02:07:25;;;;;;;3.63;2.47;;;;;;;;;;5035593;28;20035;-68
2023/12/19 02:09:53;;;;;;;2.83;2.50;;;;;;;;;;5002803;28;20056;-68
2023/12/19 02:12:19;;;;;;;4.07;2.50;;;;;;;;;;5005679;28;20983;-69
2023/12/19 02:14:45;;;;;;;5.22;2.50;;;;;;;;;;4967818;28;20244;-69
2023/12/19 02:17:11;;;;;;;3.63;2.30;;;;;;;;;;4969074;28;20034;-69
2023/12/19 02:19:44;;;;;;;4.45;2.38;;;;;;;;;;4993459;28;20037;-69
2023/12/19 02:22:11;;;;;;;4.35;2.20;;;;;;;;;;4964887;28;20479;-69
2023/12/19 02:24:37;;;;;;;2.95;2.00;;;;;;;;;;4972520;28;20294;-70
2023/12/19 02:27:04;;;;;;;8.13;2.67;;;;;;;;;;4990825;28;20121;-69
2023/12/19 02:29:30;;;;;;;4.63;2.40;;;;;;;;;;5032700;28;20035;-69
2023/12/19 02:31:57;;;;;;;4.63;2.50;;;;;;;;;;4957147;28;20968;-69
2023/12/19 02:34:23;;;;;;;4.03;2.50;;;;;;;;;;4949672;28;20062;-69
2023/12/19 02:36:50;;;;;;;4.88;2.58;;;;;;;;;;4988580;28;20027;-69
2023/12/19 02:39:16;;;;;;;3.47;2.22;;;;;;;;;;4996931;28;20215;-69
2023/12/19 02:41:42;;;;;;;5.63;2.92;;;;;;;;;;4968204;28;20328;-69
2023/12/19 02:44:09;;;;;;;4.40;2.97;;;;;;;;;;4993267;28;21163;-69
2023/12/19 02:46:35;;;;;;;3.85;2.60;;;;;;;;;;4957955;28;20029;-69
2023/12/19 02:49:01;;;;;;;6.63;2.65;;;;;;;;;;4997052;28;20125;-69
2023/12/19 02:51:29;;;;;;;4.35;2.97;;;;;;;;;;4971955;28;20031;-69
2023/12/19 02:53:55;;;;;;;6.63;3.10;;;;;;;;;;4957182;28;20026;-69
2023/12/19 02:56:21;;;;;;;4.13;2.80;;;;;;;;;;4971877;28;20068;-69
2023/12/19 02:58:47;;;;;;;4.68;3.25;;;;;;;;;;4959836;28;20023;-68
2023/12/19 03:01:14;;;;;;;4.88;3.00;;;;;;;;;;4968014;28;20751;-69
2023/12/19 03:03:40;;;;;;;6.68;2.83;;;;;;;;;;4982804;28;20084;-70
2023/12/19 03:06:07;;;;;;;4.07;2.83;;;;;;;;;;4967192;28;20054;-69
2023/12/19 03:08:35;;;;;;;3.40;2.15;;;;;;;;;;5005350;28;20092;-69
2023/12/19 03:11:01;;;;;;;7.13;2.25;;;;;;;;;;4957126;28;20493;-69
2023/12/19 03:13:27;;;;;;;3.05;2.30;;;;;;;;;;5054665;28;20155;-69
2023/12/19 03:15:53;;;;;;;4.28;2.85;;;;;;;;;;5022536;28;20110;-69
2023/12/19 03:18:25;;;;;;;2.72;2.45;;;;;;;;;;4967659;28;20080;-69
2023/12/19 03:20:53;;;;;;;2.70;2.35;;;;;;;;;;5007323;28;20520;-69
2023/12/19 03:23:19;;;;;;;3.38;2.38;;;;;;;;;;5011965;28;20537;-68
2023/12/19 03:25:45;;;;;;;3.80;2.83;;;;;;;;;;5035022;28;20031;-68
2023/12/19 03:28:12;;;;;;;6.90;2.58;;;;;;;;;;5053174;28;20039;-69
2023/12/19 03:30:38;;;;;;;2.83;2.30;;;;;;;;;;4994951;28;20066;-70
2023/12/19 03:33:04;;;;;;;8.77;3.00;;;;;;;;;;5003181;28;20445;-70
2023/12/19 03:35:31;;;;;;;5.53;2.50;;;;;;;;;;4993916;28;20133;-70
2023/12/19 03:38:00;;;;;;;6.07;2.53;;;;;;;;;;4974750;28;20344;-70
2023/12/19 03:40:26;;;;;;;3.45;2.25;;;;;;;;;;5021851;28;20096;-70
2023/12/19 03:42:53;;;;;;;4.13;2.22;;;;;;;;;;5037132;28;20035;-70
2023/12/19 03:45:19;;;;;;;2.63;2.20;;;;;;;;;;5013152;28;20036;-70
2023/12/19 03:47:45;;;;;;;2.28;1.98;;;;;;;;;;5035038;28;20057;-69
2023/12/19 03:50:12;;;;;;;2.45;1.67;;;;;;;;;;5010167;28;20026;-70
2023/12/19 03:52:41;;;;;;;4.30;1.88;;;;;;;;;;5029013;28;20156;-69
2023/12/19 03:55:08;;;;;;;2.47;1.80;;;;;;;;;;5001238;28;20026;-69
2023/12/19 03:57:34;;;;;;;1.95;1.60;;;;;;;;;;4972701;28;20440;-69
2023/12/19 04:00:00;;;;;;;1.55;1.40;;;;;;;;;;5032270;28;20029;-69
2023/12/19 04:02:26;;;;;;;1.92;1.55;;;;;;;;;;5040926;28;20481;-70
2023/12/19 04:04:53;;;;;;;2.60;1.90;;;;;;;;;;4963095;28;20027;-69
2023/12/19 04:07:19;;;;;;;1.60;1.50;;;;;;;;;;4990398;28;20429;-69
2023/12/19 04:09:45;;;;;;;1.58;1.48;;;;;;;;;;5042559;28;20042;-69
2023/12/19 04:12:13;;;;;;;2.88;1.85;;;;;;;;;;5006062;28;20033;-69
2023/12/19 04:14:39;;;;;;;1.77;1.52;;;;;;;;;;5017497;28;20023;-68
2023/12/19 04:17:05;;;;;;;1.52;1.38;;;;;;;;;;4992235;28;20529;-69
2023/12/19 04:19:31;;;;;;;1.73;1.40;;;;;;;;;;4962555;28;20081;-68
2023/12/19 04:21:58;;;;;;;1.73;1.48;;;;;;;;;;4979068;28;20447;-69
2023/12/19 04:24:26;;;;;;;1.05;1.02;;;;;;;;;;4942552;28;20657;-69
2023/12/19 04:26:52;;;;;;;1.15;1.15;;;;;;;;;;5016547;28;20551;-69
2023/12/19 04:29:19;;;;;;;1.35;1.33;;;;;;;;;;4946714;28;20558;-68
2023/12/19 04:31:45;;;;;;;1.10;1.10;;;;;;;;;;4936978;28;20036;-68
2023/12/19 04:34:11;;;;;;;1.10;1.10;;;;;;;;;;4945825;28;20478;-69
2023/12/19 04:36:37;;;;;;;2.70;1.35;;;;;;;;;;5035410;28;20021;-69
2023/12/19 04:39:03;;;;;;;1.42;1.40;;;;;;;;;;4947230;28;20050;-69
2023/12/19 04:41:30;;;;;;;1.70;1.30;;;;;;;;;;4945875;28;20050;-69
2023/12/19 04:43:56;;;;;;;1.20;1.20;;;;;;;;;;4937427;28;20020;-69
2023/12/19 04:46:22;;;;;;;1.08;1.08;;;;;;;;;;4948497;28;20027;-68
2023/12/19 04:48:48;;;;;;;1.40;1.30;;;;;;;;;;4982796;28;20723;-70
2023/12/19 04:51:22;;;;;;;2.60;1.30;;;;;;;;;;4950168;28;20024;-69
2023/12/19 04:53:48;;;;;;;1.38;1.30;;;;;;;;;;5030392;28;20501;-69
2023/12/19 04:56:16;;;;;;;1.00;1.00;;;;;;;;;;4947360;28;20055;-69
2023/12/19 04:58:44;;;;;;;1.25;1.25;;;;;;;;;;4974348;28;20388;-69
2023/12/19 05:01:11;;;;;;;1.50;1.40;;;;;;;;;;4953564;28;20019;-69
2023/12/19 05:03:39;;;;;;;1.63;1.27;;;;;;;;;;5035574;28;20041;-69
2023/12/19 05:06:07;;;;;;;1.15;1.10;;;;;;;;;;4959714;28;20038;-69
2023/12/19 05:08:33;;;;;;;1.20;1.20;;;;;;;;;;5023904;28;20110;-70
2023/12/19 05:11:00;;;;;;;2.65;1.20;;;;;;;;;;5017922;28;20028;-69
2023/12/19 05:13:26;;;;;;;2.75;1.15;;;;;;;;;;4940489;28;20027;-69
2023/12/19 05:15:52;;;;;;;1.27;1.13;;;;;;;;;;4982610;28;20049;-69
2023/12/19 05:18:18;;;;;;;3.90;1.50;;;;;;;;;;4938903;28;20081;-69
2023/12/19 05:20:45;;;;;;;1.80;1.40;;;;;;;;;;5039038;28;20549;-68
2023/12/19 05:23:11;;;;;;;4.97;1.35;;;;;;;;;;4976915;28;20038;-69
2023/12/19 05:25:37;;;;;;;3.28;1.40;;;;;;;;;;5015693;28;20038;-68
2023/12/19 05:28:04;;;;;;;2.38;1.58;;;;;;;;;;4990868;28;20033;-68
2023/12/19 05:30:30;;;;;;;1.00;1.00;;;;;;;;;;4980199;28;20037;-69
2023/12/19 05:32:56;;;;;;;1.25;1.25;;;;;;;;;;5019233;28;20028;-68
2023/12/19 05:35:23;;;;;;;3.25;1.45;;;;;;;;;;5022068;28;20035;-69
2023/12/19 05:37:49;;;;;;;1.67;1.33;;;;;;;;;;5037686;28;20447;-68
2023/12/19 05:40:16;;;;;;;3.70;1.42;;;;;;;;;;5045614;28;20119;-69
2023/12/19 05:42:42;;;;;;;1.40;1.30;;;;;;;;;;4999121;28;20063;-69
2023/12/19 05:45:09;;;;;;;2.40;1.33;;;;;;;;;;4984259;28;20049;-69
2023/12/19 05:47:36;;;;;;;4.47;1.30;;;;;;;;;;5000058;28;20035;-69
2023/12/19 05:50:04;;;;;;;1.25;1.25;;;;;;;;;;5007192;28;20521;-69
2023/12/19 05:52:30;;;;;;;6.63;1.80;;;;;;;;;;4962050;28;20092;-69
2023/12/19 05:54:56;;;;;;;1.20;1.20;;;;;;;;;;4971629;28;20027;-69
2023/12/19 05:57:23;;;;;;;1.58;1.30;;;;;;;;;;5006236;28;20034;-69
2023/12/19 05:59:49;;;;;;;1.50;1.40;;;;;;;;;;4982415;28;20517;-68
2023/12/19 06:02:15;;;;;;;3.95;1.30;;;;;;;;;;5032923;28;20421;-69
2023/12/19 06:04:42;;;;;;;1.90;1.20;;;;;;;;;;4967472;28;20085;-69
2023/12/19 06:07:08;;;;;;;1.17;1.17;;;;;;;;;;4970190;28;20059;-69
2023/12/19 06:09:34;;;;;;;2.25;1.58;;;;;;;;;;4980788;28;20035;-69
2023/12/19 06:12:00;;;;;;;2.65;1.42;;;;;;;;;;4977247;28;20035;-68
2023/12/19 06:14:27;;;;;;;1.50;1.40;;;;;;;;;;4979651;28;20089;-69
2023/12/19 06:16:53;;;;;;;3.42;1.60;;;;;;;;;;4956860;28;20049;-68
2023/12/19 06:19:23;;;;;;;2.72;1.48;;;;;;;;;;5043894;28;20053;-69
2023/12/19 06:21:49;;;;;;;2.80;1.73;;;;;;;;;;4990216;28;20527;-68
2023/12/19 06:24:15;;;;;;;3.08;1.63;;;;;;;;;;4961988;28;20649;-69
2023/12/19 06:26:42;;;;;;;4.32;1.50;;;;;;;;;;4981658;28;20593;-69
2023/12/19 06:29:08;;;;;;;1.15;1.15;;;;;;;;;;4979020;28;20552;-69
2023/12/19 06:31:40;;;;;;;1.88;1.38;;;;;;;;;;4971179;28;20037;-69
2023/12/19 06:34:06;;;;;;;1.30;1.20;;;;;;;;;;4976662;28;20053;-69
2023/12/19 06:36:32;;;;;;;4.95;1.50;;;;;;;;;;4972660;28;20031;-68
2023/12/19 06:39:00;;;;;;;3.25;1.50;;;;;;;;;;4975306;28;20471;-69
2023/12/19 06:41:27;;;;;;;1.75;1.30;;;;;;;;;;4995434;28;20031;-69
2023/12/19 06:43:53;;;;;;;1.10;1.10;;;;;;;;;;4959668;28;20040;-68
2023/12/19 06:46:20;;;;;;;2.90;1.50;;;;;;;;;;4957868;28;20051;-68
2023/12/19 06:48:46;;;;;;;5.15;1.40;;;;;;;;;;4987398;28;20494;-69
2023/12/19 06:51:23;;;;;;;2.80;1.65;;;;;;;;;;4951450;28;20028;-69
2023/12/19 06:53:50;;;;;;;4.38;1.65;;;;;;;;;;4986962;28;20506;-69
2023/12/19 06:56:17;;;;;;;3.65;1.60;;;;;;;;;;4951711;28;20030;-68
2023/12/19 06:58:43;;;;;;;1.52;1.42;;;;;;;;;;4954011;28;20023;-68
2023/12/19 07:01:09;;;;;;;3.67;1.42;;;;;;;;;;4979021;28;20038;-68
2023/12/19 07:03:36;;;;;;;2.95;1.65;;;;;;;;;;4960128;28;20047;-68
2023/12/19 07:06:02;;;;;;;1.40;1.30;;;;;;;;;;5038741;28;20029;-68
2023/12/19 07:08:32;;;;;;;6.82;1.70;;;;;;;;;;5013467;28;20423;-68
2023/12/19 07:10:58;;;;;;;1.65;1.55;;;;;;;;;;4980270;28;20625;-69
2023/12/19 07:13:24;;;;;;;1.45;1.35;;;;;;;;;;4952273;28;20387;-70
2023/12/19 07:15:51;;;;;;;0.98;0.98;;;;;;;;;;5020273;28;20483;-68
2023/12/19 07:18:17;;;;;;;3.22;1.92;;;;;;;;;;5034969;28;20368;-68
2023/12/19 07:20:43;;;;;;;2.50;1.50;;;;;;;;;;4996838;28;20042;-69
2023/12/19 07:23:09;;;;;;;1.95;1.38;;;;;;;;;;5026218;28;20532;-69
2023/12/19 07:25:35;;;;;;;1.60;1.48;;;;;;;;;;5029656;28;20419;-68
2023/12/19 07:28:02;;;;;;;1.80;1.70;;;;;;;;;;5035421;28;20037;-71
2023/12/19 07:30:29;;;;;;;4.20;1.63;;;;;;;;;;5032461;28;20037;-68
2023/12/19 07:32:55;;;;;;;3.30;1.52;;;;;;;;;;5036833;28;20021;-68
2023/12/19 07:35:22;;;;;;;5.53;2.13;;;;;;;;;;5022401;28;20732;-69
2023/12/19 07:37:48;;;;;;;2.17;1.60;;;;;;;;;;5045814;28;20044;-68
2023/12/19 07:40:14;;;;;;;3.88;1.70;;;;;;;;;;5044888;28;20033;-68
2023/12/19 07:42:44;;;;;;;5.38;1.85;;;;;;;;;;5038908;28;20070;-69
2023/12/19 07:45:11;;;;;;;5.00;1.50;;;;;;;;;;5042096;28;20078;-68
2023/12/19 07:47:37;;;;;;;3.63;1.75;;;;;;;;;;5031890;28;20033;-68
2023/12/19 07:50:04;;;;;;;1.95;1.85;;;;;;;;;;5045874;28;20051;-69
2023/12/19 07:52:30;;;;;;;2.30;1.58;;;;;;;;;;5037823;28;20028;-69
2023/12/19 07:54:56;;;;;;;4.25;1.85;;;;;;;;;;5042113;28;20576;-67
2023/12/19 07:57:22;;;;;;;5.95;1.88;;;;;;;;;;5037841;28;20384;-68
2023/12/19 07:59:49;;;;;;;2.65;1.48;;;;;;;;;;5036455;28;20075;-68
2023/12/19 08:02:16;;;;;;;1.65;1.55;;;;;;;;;;5030289;28;20038;-68
2023/12/19 08:04:42;;;;;;;1.75;1.65;;;;;;;;;;5037744;28;20421;-68
2023/12/19 08:07:09;;;;;;;8.30;2.20;;;;;;;;;;5042499;28;20630;-68
2023/12/19 08:09:35;;;;;;;6.40;2.00;;;;;;;;;;5041782;28;20025;-69
2023/12/19 08:12:01;;;;;;;7.32;2.25;;;;;;;;;;5029997;28;20041;-68
2023/12/19 08:14:28;;;;;;;5.82;1.58;;;;;;;;;;5047791;28;20048;-68
2023/12/19 08:16:54;;;;;;;4.60;1.75;;;;;;;;;;5038295;28;20017;-68
2023/12/19 08:19:21;;;;;;;2.65;2.10;;;;;;;;;;5034270;28;20626;-68
2023/12/19 08:21:56;;;;;;;1.80;1.70;;;;;;;;;;5034656;28;20288;-68
2023/12/19 08:24:22;;;;;;;6.93;1.98;;;;;;;;;;5042355;28;20058;-67
2023/12/19 08:26:49;;;;;;;6.55;1.90;;;;;;;;;;5041536;28;20029;-68
2023/12/19 08:29:15;;;;;;;8.52;1.75;;;;;;;;;;5040016;28;20033;-68
2023/12/19 08:31:42;;;;;;;6.97;2.60;;;;;;;;;;5033001;28;20112;-68
2023/12/19 08:34:08;;;;;;;2.00;1.75;;;;;;;;;;5041163;28;20389;-68
2023/12/19 08:36:34;;;;;;;6.00;1.85;;;;;;;;;;5047496;28;20021;-68
2023/12/19 08:39:01;;;;;;;4.68;2.15;;;;;;;;;;5032956;28;20573;-68
2023/12/19 08:41:27;;;;;;;3.65;2.00;;;;;;;;;;5042994;28;20025;-68
2023/12/19 08:43:53;;;;;;;2.70;1.30;;;;;;;;;;5038225;28;20024;-71
2023/12/19 08:46:20;;;;;;;2.78;1.60;;;;;;;;;;5046977;28;20021;-69
2023/12/19 08:48:48;;;;;;;3.28;1.75;;;;;;;;;;5033743;28;20405;-68
2023/12/19 08:51:15;;;;;;;3.72;1.85;;;;;;;;;;5044066;28;20397;-68
2023/12/19 08:53:41;;;;;;;7.90;2.03;;;;;;;;;;5041367;28;20116;-68
2023/12/19 08:56:07;;;;;;;5.70;1.75;;;;;;;;;;5044137;28;20029;-70
2023/12/19 08:58:34;;;;;;;6.95;1.85;;;;;;;;;;5051550;28;20021;-68
2023/12/19 09:01:00;;;;;;;3.35;1.48;;;;;;;;;;5047127;28;20084;-71
2023/12/19 09:03:26;;;;;;;6.43;1.88;;;;;;;;;;5037817;28;20025;-68
2023/12/19 09:05:52;;;;;;;5.63;1.77;;;;;;;;;;5038181;28;20525;-68
2023/12/19 09:08:18;;;;;;;2.13;1.85;;;;;;;;;;5033797;28;20070;-69
2023/12/19 09:10:46;;;;;;;3.28;1.98;;;;;;;;;;5047046;28;20029;-68
2023/12/19 09:13:12;;;;;;;4.57;1.73;;;;;;;;;;5037679;28;20028;-70
2023/12/19 09:15:38;;;;;;;6.45;1.90;;;;;;;;;;5037822;28;20013;-68
2023/12/19 09:18:04;;;;;;;7.70;2.17;;;;;;;;;;5041908;28;20052;-68
2023/12/19 09:20:31;;;;;;;2.40;1.80;;;;;;;;;;5007343;28;20037;-68
2023/12/19 09:22:57;;;;;;;5.05;2.95;;;;;;;;;;4980084;28;20060;-68
2023/12/19 09:25:23;;;;;;;3.33;1.58;;;;;;;;;;4981026;28;20027;-69
2023/12/19 09:27:49;;;;;;;1.40;1.30;;;;;;;;;;4980963;28;20489;-68
2023/12/19 09:30:16;;;;;;;5.72;1.60;;;;;;;;;;5012152;28;20045;-68
2023/12/19 09:32:43;;;;;;;4.32;2.53;;;;;;;;;;4988099;28;20107;-69
2023/12/19 09:35:12;;;;;;;3.35;1.65;;;;;;;;;;5012886;28;20017;-68
2023/12/19 09:37:38;;;;;;;2.72;1.80;;;;;;;;;;4998149;28;20080;-68
2023/12/19 09:40:06;;;;;;;6.53;2.03;;;;;;;;;;4962722;28;20023;-70
2023/12/19 09:42:32;;;;;;;3.08;1.60;;;;;;;;;;5012041;28;20609;-68
2023/12/19 09:44:59;;;;;;;6.80;2.53;;;;;;;;;;5047575;28;20030;-68
2023/12/19 09:47:28;;;;;;;3.53;1.92;;;;;;;;;;4992956;28;20028;-68
2023/12/19 09:50:00;;;;;;;2.90;1.83;;;;;;;;;;5045658;28;20027;-69
2023/12/19 09:52:26;;;;;;;3.08;1.73;;;;;;;;;;4990556;28;20024;-69
2023/12/19 09:54:52;;;;;;;9.82;2.33;;;;;;;;;;5001093;28;20027;-68
2023/12/19 09:57:20;;;;;;;4.57;1.58;;;;;;;;;;5040513;28;20031;-68
2023/12/19 09:59:48;;;;;;;4.90;2.15;;;;;;;;;;5016642;28;20513;-68
2023/12/19 10:02:14;;;;;;;6.55;1.90;;;;;;;;;;5054799;28;20031;-67
2023/12/19 10:04:41;;;;;;;2.95;2.10;;;;;;;;;;4968360;28;20482;-68
2023/12/19 10:07:07;;;;;;;2.97;1.58;;;;;;;;;;4972841;28;20173;-69
2023/12/19 10:09:34;;;;;;;5.95;2.20;;;;;;;;;;5008776;28;20028;-68
2023/12/19 10:12:11;;;;;;;3.63;1.60;;;;;;;;;;4997820;28;20031;-68
2023/12/19 10:14:37;;;;;;;4.90;2.72;;;;;;;;;;4984608;28;20039;-70
2023/12/19 10:17:04;;;;;;;7.18;2.05;;;;;;;;;;4984455;28;20106;-69
2023/12/19 10:19:33;;;;;;;1.98;1.55;;;;;;;;;;5008023;28;20027;-68
2023/12/19 10:22:06;;;;;;;5.90;1.75;;;;;;;;;;5038649;28;20040;-69
2023/12/19 10:24:32;;;;;;;3.80;1.67;;;;;;;;;;5034346;28;20029;-69
2023/12/19 10:27:01;;;;;;;6.32;2.17;;;;;;;;;;5034411;28;20021;-69
2023/12/19 10:29:36;;;;;;;2.38;1.98;;;;;;;;;;5032100;28;20045;-68
2023/12/19 10:32:16;;;;;;;9.75;2.33;;;;;;;;;;5032746;28;20582;-68
2023/12/19 10:34:44;;;;;;;4.55;1.92;;;;;;;;;;5038663;28;20041;-68
2023/12/19 10:37:11;;;;;;;6.55;2.75;;;;;;;;;;5039024;28;20024;-68
2023/12/19 10:39:38;;;;;;;4.45;2.15;;;;;;;;;;5039357;28;20033;-68
2023/12/19 10:42:07;;;;;;;7.65;2.67;;;;;;;;;;5046536;28;20033;-69
2023/12/19 10:44:37;;;;;;;5.30;1.92;;;;;;;;;;5029233;28;20037;-68
2023/12/19 10:47:05;;;;;;;4.90;1.95;;;;;;;;;;5040560;28;20041;-68
2023/12/19 10:49:31;;;;;;;2.15;1.80;;;;;;;;;;5027776;28;20489;-68
2023/12/19 10:51:59;;;;;;;8.63;2.00;;;;;;;;;;5037976;28;20495;-68
2023/12/19 10:54:26;;;;;;;5.78;2.40;;;;;;;;;;5036103;28;20025;-69
2023/12/19 10:56:52;;;;;;;5.85;1.90;;;;;;;;;;5039922;28;20084;-68
2023/12/19 10:59:29;;;;;;;3.13;2.00;;;;;;;;;;5040348;28;20073;-69
2023/12/19 11:02:00;;;;;;;3.72;1.75;;;;;;;;;;5034785;28;20486;-69
2023/12/19 11:04:29;;;;;;;5.43;1.98;;;;;;;;;;5029535;28;20082;-69
2023/12/19 11:06:57;;;;;;;5.85;1.90;;;;;;;;;;5037908;28;20108;-69
2023/12/19 11:09:25;;;;;;;4.75;2.08;;;;;;;;;;5038226;28;20037;-69
2023/12/19 11:11:52;;;;;;;1.92;1.83;;;;;;;;;;5050517;28;20550;-69
2023/12/19 11:14:22;;;;;;;7.65;2.28;;;;;;;;;;5038786;28;20115;-69
2023/12/19 11:16:57;;;;;;;4.30;2.17;;;;;;;;;;5032458;28;20535;-69
2023/12/19 11:19:27;;;;;;;3.25;2.20;;;;;;;;;;5032272;28;20033;-69
2023/12/19 11:21:59;;;;;;;3.25;2.10;;;;;;;;;;5038640;28;20077;-69
2023/12/19 11:24:30;;;;;;;3.90;1.90;;;;;;;;;;5006875;28;20043;-69
2023/12/19 11:27:10;;;;;;;3.97;1.77;;;;;;;;;;4994692;28;20058;-69
2023/12/19 11:29:56;;;;;;;4.45;1.77;;;;;;;;;;5027923;28;20031;-69
2023/12/19 11:32:22;;;;;;;;;;;;;;;;;;5024034;28;20036;-69
2023/12/19 11:34:48;;;;;;;;;;;;;;;;;;4942479;28;20412;-69
2023/12/19 11:37:20;;;;;;;4.38;2.28;;;;;;;;;;4963692;28;20005;-69
2023/12/19 11:39:47;;;;;;;5.80;2.10;;;;;;;;;;5025079;28;20062;-69
2023/12/19 11:42:32;;;;;;;4.20;2.50;;;;;;;;;;4978011;28;20050;-69
2023/12/19 11:44:58;;;;;;;5.35;3.50;;;;;;;;;;4996410;28;20541;-70
2023/12/19 11:47:29;;;;;;;3.10;2.03;;;;;;;;;;4978068;28;20129;-69
2023/12/19 11:49:55;;;;;;;3.28;1.65;;;;;;;;;;5029269;28;20027;-69
2023/12/19 11:52:37;;;;;;;2.78;2.08;;;;;;;;;;4950981;28;20378;-69
2023/12/19 11:55:05;;;;;;;4.53;2.25;;;;;;;;;;4945966;28;20031;-69
2023/12/19 11:57:32;;;;;;;3.10;1.98;;;;;;;;;;4943302;28;20456;-69
2023/12/19 11:59:58;;;;;;;4.88;1.88;;;;;;;;;;5024243;28;20577;-69
2023/12/19 12:02:31;;;;;;;4.60;2.78;;;;;;;;;;4950873;28;20031;-69
2023/12/19 12:05:04;;;;;;;5.55;2.40;;;;;;;;;;4951102;28;20067;-69
2023/12/19 12:07:31;;;;;;;5.07;2.17;;;;;;;;;;4970703;28;20071;-69
2023/12/19 12:10:04;;;;;;;5.20;2.00;;;;;;;;;;4979245;28;20028;-69
2023/12/19 12:12:36;;;;;;;2.60;1.70;;;;;;;;;;4944077;28;20025;-70
2023/12/19 12:15:09;;;;;;;5.80;2.63;;;;;;;;;;5024691;28;20644;-69
2023/12/19 12:17:36;;;;;;;3.45;1.90;;;;;;;;;;5026719;28;20089;-69
2023/12/19 12:20:03;;;;;;;3.97;2.03;;;;;;;;;;5008911;28;20043;-68
2023/12/19 12:22:31;;;;;;;5.28;1.95;;;;;;;;;;5001884;28;20031;-69
2023/12/19 12:24:57;;;;;;;4.00;1.92;;;;;;;;;;4987783;28;20120;-69
2023/12/19 12:27:25;;;;;;;5.47;2.30;;;;;;;;;;4997243;28;20037;-68
2023/12/19 12:29:52;;;;;;;8.65;2.55;;;;;;;;;;4967103;28;20095;-69
2023/12/19 12:32:24;;;;;;;4.57;2.67;;;;;;;;;;4976632;28;20030;-69
2023/12/19 12:34:50;;;;;;;2.97;1.83;;;;;;;;;;4991508;28;20028;-69
2023/12/19 12:37:17;;;;;;;5.35;2.00;;;;;;;;;;5030181;28;20037;-69
2023/12/19 12:39:44;;;;;;;4.95;2.00;;;;;;;;;;5028825;28;20059;-69
2023/12/19 12:42:13;;;;;;;6.68;2.75;;;;;;;;;;4990472;28;20027;-69
2023/12/19 12:44:42;;;;;;;4.57;3.05;;;;;;;;;;4991334;28;20024;-69
2023/12/19 12:47:09;;;;;;;5.00;2.75;;;;;;;;;;4982275;28;20023;-69
2023/12/19 12:49:38;;;;;;;4.70;2.80;;;;;;;;;;5054377;28;20044;-69
2023/12/19 12:52:04;;;;;;;8.20;2.67;;;;;;;;;;4995925;28;20027;-69
2023/12/19 12:54:30;;;;;;;7.47;3.13;;;;;;;;;;5000442;28;20092;-69
2023/12/19 12:56:57;;;;;;;5.00;2.00;;;;;;;;;;4996102;28;20015;-69
2023/12/19 12:59:28;;;;;;;3.75;2.10;;;;;;;;;;5044455;28;20062;-69
2023/12/19 13:01:55;;;;;;;5.93;1.88;;;;;;;;;;5046446;28;20031;-68
2023/12/19 13:04:22;;;;;;;4.78;1.98;;;;;;;;;;4958823;28;20106;-69
2023/12/19 13:06:50;;;;;;;4.43;2.22;;;;;;;;;;5043574;28;20038;-69
2023/12/19 13:09:20;;;;;;;3.38;1.80;;;;;;;;;;5005136;28;20240;-69
2023/12/19 13:11:47;;;;;;;6.40;2.35;;;;;;;;;;5067147;28;20090;-69
2023/12/19 13:14:15;;;;;;;4.13;2.50;;;;;;;;;;4965109;28;20351;-69
2023/12/19 13:16:41;;;;;;;7.32;2.40;;;;;;;;;;4985126;28;20047;-68
2023/12/19 13:19:08;;;;;;;5.32;2.35;;;;;;;;;;4956214;28;20058;-69
2023/12/19 13:21:34;;;;;;;5.10;2.40;;;;;;;;;;4997672;28;20043;-69
2023/12/19 13:24:00;;;;;;;2.75;2.30;;;;;;;;;;4969484;28;20235;-68
2023/12/19 13:26:29;;;;;;;3.67;2.13;;;;;;;;;;4975265;28;20493;-70
2023/12/19 13:28:56;;;;;;;5.45;2.35;;;;;;;;;;4991895;28;20086;-69
2023/12/19 13:31:24;;;;;;;4.05;2.05;;;;;;;;;;4965366;28;20065;-68
2023/12/19 13:33:53;;;;;;;5.32;2.25;;;;;;;;;;5006657;28;20029;-69
2023/12/19 13:36:21;;;;;;;8.32;2.33;;;;;;;;;;4994618;28;20422;-69
2023/12/19 13:38:48;;;;;;;7.22;2.67;;;;;;;;;;4967688;28;20031;-69
2023/12/19 13:41:17;;;;;;;4.50;2.20;;;;;;;;;;4958401;28;20039;-71
2023/12/19 13:43:45;;;;;;;3.72;2.40;;;;;;;;;;4990074;28;20025;-70
2023/12/19 13:46:11;;;;;;;5.72;2.75;;;;;;;;;;5017499;28;20027;-69
2023/12/19 13:48:38;;;;;;;5.00;2.60;;;;;;;;;;5036717;28;20104;-69
2023/12/19 13:51:04;;;;;;;6.15;2.85;;;;;;;;;;5055262;28;20385;-69
2023/12/19 13:53:31;;;;;;;4.70;2.50;;;;;;;;;;5001398;28;20122;-69
2023/12/19 13:55:57;;;;;;;5.07;2.33;;;;;;;;;;5022075;28;20075;-69
2023/12/19 13:58:23;;;;;;;6.45;2.70;;;;;;;;;;4998053;28;20042;-69
2023/12/19 14:00:51;;;;;;;4.70;2.53;;;;;;;;;;5001672;28;20392;-69
2023/12/19 14:03:17;;;;;;;10.95;5.03;;;;;;;;;;5019029;28;20117;-72
2023/12/19 14:05:44;;;;;;;12.88;4.40;;;;;;;;;;5004939;28;20043;-69
2023/12/19 14:08:11;;;;;;;4.43;2.83;;;;;;;;;;4997889;28;20087;-69
2023/12/19 14:10:37;;;;;;;4.93;2.40;;;;;;;;;;4974790;28;20034;-69
2023/12/19 14:13:04;;;;;;;7.38;4.60;;;;;;;;;;4971280;28;20379;-68
2023/12/19 14:15:31;;;;;;;8.32;3.42;;;;;;;;;;5016022;28;20032;-69
2023/12/19 14:17:57;;;;;;;5.45;2.47;;;;;;;;;;4983846;28;20038;-68
2023/12/19 14:20:25;;;;;;;9.52;3.75;;;;;;;;;;4989350;28;20045;-69
2023/12/19 14:22:51;;;;;;;6.40;2.70;;;;;;;;;;4997651;28;20479;-70
2023/12/19 14:25:18;;;;;;;8.98;3.47;;;;;;;;;;4992569;28;20043;-69
2023/12/19 14:27:47;;;;;;;6.70;2.83;;;;;;;;;;5038561;28;20045;-69
2023/12/19 14:30:13;;;;;;;6.00;3.20;;;;;;;;;;5005711;28;20047;-69
2023/12/19 14:32:40;;;;;;;4.35;2.35;;;;;;;;;;5000784;28;20016;-69
2023/12/19 14:35:08;;;;;;;7.60;2.38;;;;;;;;;;5027997;28;20023;-68
2023/12/19 14:37:35;;;;;;;7.38;2.50;;;;;;;;;;5007145;28;20056;-71
2023/12/19 14:40:01;;;;;;;8.85;2.95;;;;;;;;;;5017390;28;20035;-68
2023/12/19 14:42:27;;;;;;;7.07;3.33;;;;;;;;;;5008405;28;20400;-69